Kisakata, Japan
Current Conditions -  °F | °C
As of 4:00 PM on Friday 24 Oct 2014 (Local Time) from RJSY Reporting Station
Few Clouds Few Clouds  
Wind Chill: 61°   Ceiling: Unl
Heat Index: 61°   Visibility: 6mi
Dew Point: 46°   Wind: 6mph
Humidity: 59%   Direction: 260°W
Pressure: 30.12"   Gusts: NA
Location:  39.22°N, 139.9°E
Report Text: RJSY 240700Z 26005KT 9999 FEW035 16/08 Q1020
Loading
Personal Weather Stations






























Interactive Weather Map
Tropical Storm Tracking
New forecast layout! Learn more

10-Day Weather Forecast

Advertisements
Track Severe Weather on mobile